sensor_id;sensor_type;location;lat;lon;timestamp;pressure;altitude;pressure_sealevel;temperature;humidity
48077;BME280;33854;57.708;12.008;2022-11-20T00:00:52;102201.50;;;-0.76;100.00
48077;BME280;33854;57.708;12.008;2022-11-20T00:03:18;102175.44;;;-0.94;100.00
48077;BME280;33854;57.708;12.008;2022-11-20T00:05:43;102214.41;;;-0.73;100.00
48077;BME280;33854;57.708;12.008;2022-11-20T00:08:09;102170.16;;;-1.00;100.00
48077;BME280;33854;57.708;12.008;2022-11-20T00:10:39;102227.31;;;-0.70;100.00
48077;BME280;33854;57.708;12.008;2022-11-20T00:13:05;102177.91;;;-0.99;100.00
48077;BME280;33854;57.708;12.008;2022-11-20T00:15:30;102195.13;;;-0.93;100.00
48077;BME280;33854;57.708;12.008;2022-11-20T00:17:56;102226.41;;;-0.72;100.00
48077;BME280;33854;57.708;12.008;2022-11-20T00:20:21;102232.34;;;-0.73;100.00
48077;BME280;33854;57.708;12.008;2022-11-20T00:22:47;102232.28;;;-0.76;100.00
48077;BME280;33854;57.708;12.008;2022-11-20T00:25:12;102188.00;;;-1.05;100.00
48077;BME280;33854;57.708;12.008;2022-11-20T00:27:38;102228.03;;;-0.76;100.00
48077;BME280;33854;57.708;12.008;2022-11-20T00:30:04;102197.72;;;-0.92;100.00
48077;BME280;33854;57.708;12.008;2022-11-20T00:32:30;102224.63;;;-0.75;100.00
48077;BME280;33854;57.708;12.008;2022-11-20T00:34:55;102228.91;;;-0.74;100.00
48077;BME280;33854;57.708;12.008;2022-11-20T00:37:21;102198.34;;;-1.02;100.00
48077;BME280;33854;57.708;12.008;2022-11-20T00:39:46;102196.75;;;-0.97;100.00
48077;BME280;33854;57.708;12.008;2022-11-20T00:42:11;102199.34;;;-0.95;100.00
48077;BME280;33854;57.708;12.008;2022-11-20T00:44:37;102225.28;;;-0.83;100.00
48077;BME280;33854;57.708;12.008;2022-11-20T00:47:02;102235.59;;;-0.80;100.00
48077;BME280;33854;57.708;12.008;2022-11-20T00:49:28;102177.63;;;-1.11;100.00
48077;BME280;33854;57.708;12.008;2022-11-20T00:51:53;102228.59;;;-0.87;100.00
48077;BME280;33854;57.708;12.008;2022-11-20T00:54:18;102237.03;;;-0.91;100.00
48077;BME280;33854;57.708;12.008;2022-11-20T00:56:44;102198.03;;;-1.14;100.00
48077;BME280;33854;57.708;12.008;2022-11-20T00:59:10;102192.91;;;-1.14;100.00
48077;BME280;33854;57.708;12.008;2022-11-20T01:01:36;102228.50;;;-0.90;100.00
48077;BME280;33854;57.708;12.008;2022-11-20T01:04:02;102230.09;;;-0.95;100.00
48077;BME280;33854;57.708;12.008;2022-11-20T01:06:33;102239.50;;;-0.94;100.00
48077;BME280;33854;57.708;12.008;2022-11-20T01:09:03;102246.38;;;-0.93;100.00
48077;BME280;33854;57.708;12.008;2022-11-20T01:11:32;102248.13;;;-0.92;100.00
48077;BME280;33854;57.708;12.008;2022-11-20T01:13:59;102242.00;;;-0.97;100.00
48077;BME280;33854;57.708;12.008;2022-11-20T01:16:26;102247.19;;;-0.96;100.00
48077;BME280;33854;57.708;12.008;2022-11-20T01:18:55;102252.25;;;-0.97;100.00
48077;BME280;33854;57.708;12.008;2022-11-20T01:21:24;102252.16;;;-1.00;100.00
48077;BME280;33854;57.708;12.008;2022-11-20T01:23:50;102247.03;;;-1.00;100.00
48077;BME280;33854;57.708;12.008;2022-11-20T01:26:19;102251.44;;;-0.96;100.00
48077;BME280;33854;57.708;12.008;2022-11-20T01:28:45;102248.88;;;-0.96;100.00
48077;BME280;33854;57.708;12.008;2022-11-20T01:31:21;102248.88;;;-0.96;100.00
48077;BME280;33854;57.708;12.008;2022-11-20T01:33:48;102245.44;;;-0.97;100.00
48077;BME280;33854;57.708;12.008;2022-11-20T01:36:15;102253.19;;;-0.95;100.00
48077;BME280;33854;57.708;12.008;2022-11-20T01:38:41;102250.53;;;-0.98;100.00
48077;BME280;33854;57.708;12.008;2022-11-20T01:41:08;102254.88;;;-0.96;100.00
48077;BME280;33854;57.708;12.008;2022-11-20T01:43:34;102255.69;;;-0.97;100.00
48077;BME280;33854;57.708;12.008;2022-11-20T01:46:17;102215.00;;;-1.18;100.00
48077;BME280;33854;57.708;12.008;2022-11-20T01:54:17;102234.19;;;-1.03;100.00
48077;BME280;33854;57.708;12.008;2022-11-20T01:56:45;102228.06;;;-1.08;100.00
48077;BME280;33854;57.708;12.008;2022-11-20T01:59:15;102228.13;;;-1.05;100.00
48077;BME280;33854;57.708;12.008;2022-11-20T02:01:42;102227.97;;;-1.11;100.00
48077;BME280;33854;57.708;12.008;2022-11-20T02:04:08;102220.34;;;-1.10;100.00
48077;BME280;33854;57.708;12.008;2022-11-20T02:06:46;102225.66;;;-1.02;100.00
48077;BME280;33854;57.708;12.008;2022-11-20T02:09:14;102217.16;;;-1.00;100.00
48077;BME280;33854;57.708;12.008;2022-11-20T02:11:40;102183.34;;;-1.21;100.00
48077;BME280;33854;57.708;12.008;2022-11-20T02:14:05;102211.25;;;-0.97;100.00
48077;BME280;33854;57.708;12.008;2022-11-20T02:16:37;102151.63;;;-1.26;100.00
48077;BME280;33854;57.708;12.008;2022-11-20T02:19:05;102207.94;;;-0.93;100.00
48077;BME280;33854;57.708;12.008;2022-11-20T02:24:13;102198.66;;;-0.88;100.00
48077;BME280;33854;57.708;12.008;2022-11-20T02:26:44;102202.09;;;-0.88;100.00
48077;BME280;33854;57.708;12.008;2022-11-20T02:29:11;102197.84;;;-0.87;100.00
48077;BME280;33854;57.708;12.008;2022-11-20T02:31:38;102198.72;;;-0.87;100.00
48077;BME280;33854;57.708;12.008;2022-11-20T02:34:05;102159.66;;;-1.12;100.00
48077;BME280;33854;57.708;12.008;2022-11-20T02:36:32;102189.25;;;-0.89;100.00
48077;BME280;33854;57.708;12.008;2022-11-20T02:38:58;102187.50;;;-0.90;100.00
48077;BME280;33854;57.708;12.008;2022-11-20T02:41:32;102196.09;;;-0.88;100.00
48077;BME280;33854;57.708;12.008;2022-11-20T02:43:58;102186.63;;;-0.91;100.00
48077;BME280;33854;57.708;12.008;2022-11-20T02:46:23;102196.94;;;-0.89;100.00
48077;BME280;33854;57.708;12.008;2022-11-20T02:48:49;102194.47;;;-0.86;100.00
48077;BME280;33854;57.708;12.008;2022-11-20T02:51:14;102194.38;;;-0.89;100.00
48077;BME280;33854;57.708;12.008;2022-11-20T02:53:39;102188.38;;;-0.90;100.00
48077;BME280;33854;57.708;12.008;2022-11-20T02:56:05;102178.00;;;-0.94;100.00
48077;BME280;33854;57.708;12.008;2022-11-20T02:58:31;102194.38;;;-0.89;100.00
48077;BME280;33854;57.708;12.008;2022-11-20T03:00:56;102184.88;;;-0.93;100.00
48077;BME280;33854;57.708;12.008;2022-11-20T03:03:22;102175.50;;;-0.93;100.00
48077;BME280;33854;57.708;12.008;2022-11-20T03:05:47;102181.56;;;-0.89;100.00
48077;BME280;33854;57.708;12.008;2022-11-20T03:08:12;102185.78;;;-0.91;100.00
48077;BME280;33854;57.708;12.008;2022-11-20T03:10:38;102185.78;;;-0.91;100.00
48077;BME280;33854;57.708;12.008;2022-11-20T03:13:03;102149.44;;;-1.11;100.00
48077;BME280;33854;57.708;12.008;2022-11-20T03:15:29;102152.19;;;-1.03;100.00
48077;BME280;33854;57.708;12.008;2022-11-20T03:17:54;102168.75;;;-0.89;100.00
48077;BME280;33854;57.708;12.008;2022-11-20T03:20:21;102168.75;;;-0.89;100.00
48077;BME280;33854;57.708;12.008;2022-11-20T03:22:46;102169.53;;;-0.92;100.00
48077;BME280;33854;57.708;12.008;2022-11-20T03:25:12;102134.91;;;-1.12;100.00
48077;BME280;33854;57.708;12.008;2022-11-20T03:27:37;102158.22;;;-1.01;100.00
48077;BME280;33854;57.708;12.008;2022-11-20T03:30:03;102151.03;;;-1.15;100.00
48077;BME280;33854;57.708;12.008;2022-11-20T03:32:28;102175.19;;;-1.06;100.00
48077;BME280;33854;57.708;12.008;2022-11-20T03:34:54;102164.84;;;-1.09;100.00
48077;BME280;33854;57.708;12.008;2022-11-20T03:37:19;102160.53;;;-1.12;100.00
48077;BME280;33854;57.708;12.008;2022-11-20T03:39:45;102162.16;;;-1.14;100.00
48077;BME280;33854;57.708;12.008;2022-11-20T03:42:10;102141.16;;;-1.35;100.00
48077;BME280;33854;57.708;12.008;2022-11-20T03:44:54;102120.44;;;-1.44;100.00
48077;BME280;33854;57.708;12.008;2022-11-20T03:47:20;102098.16;;;-1.48;100.00
48077;BME280;33854;57.708;12.008;2022-11-20T03:49:45;102156.81;;;-1.23;100.00
48077;BME280;33854;57.708;12.008;2022-11-20T03:52:11;102139.66;;;-1.27;100.00
48077;BME280;33854;57.708;12.008;2022-11-20T03:54:36;102138.78;;;-1.28;100.00
48077;BME280;33854;57.708;12.008;2022-11-20T03:57:01;102130.22;;;-1.30;100.00
48077;BME280;33854;57.708;12.008;2022-11-20T03:59:27;102120.59;;;-1.38;100.00
48077;BME280;33854;57.708;12.008;2022-11-20T04:01:52;102128.38;;;-1.35;100.00
48077;BME280;33854;57.708;12.008;2022-11-20T04:04:17;102122.38;;;-1.36;100.00
48077;BME280;33854;57.708;12.008;2022-11-20T04:06:43;102123.25;;;-1.34;100.00
48077;BME280;33854;57.708;12.008;2022-11-20T04:09:08;102101.09;;;-1.32;100.00
48077;BME280;33854;57.708;12.008;2022-11-20T04:11:35;102087.25;;;-1.41;100.00
48077;BME280;33854;57.708;12.008;2022-11-20T04:14:03;102107.97;;;-1.31;100.00
48077;BME280;33854;57.708;12.008;2022-11-20T04:16:33;102102.84;;;-1.31;100.00
48077;BME280;33854;57.708;12.008;2022-11-20T04:19:00;102045.81;;;-1.61;100.00
48077;BME280;33854;57.708;12.008;2022-11-20T04:21:26;102096.00;;;-1.32;100.00
48077;BME280;33854;57.708;12.008;2022-11-20T04:23:53;102098.47;;;-1.35;100.00
48077;BME280;33854;57.708;12.008;2022-11-20T04:26:20;102094.06;;;-1.40;100.00
48077;BME280;33854;57.708;12.008;2022-11-20T04:28:45;102095.78;;;-1.41;100.00
48077;BME280;33854;57.708;12.008;2022-11-20T04:31:14;102094.78;;;-1.46;100.00
48077;BME280;33854;57.708;12.008;2022-11-20T04:33:40;102089.66;;;-1.47;100.00
48077;BME280;33854;57.708;12.008;2022-11-20T04:36:09;102088.69;;;-1.51;100.00
48077;BME280;33854;57.708;12.008;2022-11-20T04:38:35;102079.25;;;-1.53;100.00
48077;BME280;33854;57.708;12.008;2022-11-20T04:41:04;102045.50;;;-1.73;100.00
48077;BME280;33854;57.708;12.008;2022-11-20T04:43:30;102080.19;;;-1.50;100.00
48077;BME280;33854;57.708;12.008;2022-11-20T04:45:56;102053.31;;;-1.67;100.00
48077;BME280;33854;57.708;12.008;2022-11-20T04:48:23;102068.38;;;-1.45;100.00
48077;BME280;33854;57.708;12.008;2022-11-20T04:50:49;102010.53;;;-1.73;100.00
48077;BME280;33854;57.708;12.008;2022-11-20T04:53:14;102064.13;;;-1.44;100.00
48077;BME280;33854;57.708;12.008;2022-11-20T04:55:40;102069.25;;;-1.44;100.00
48077;BME280;33854;57.708;12.008;2022-11-20T04:58:05;102065.00;;;-1.42;100.00
48077;BME280;33854;57.708;12.008;2022-11-20T05:00:31;102064.19;;;-1.41;100.00
48077;BME280;33854;57.708;12.008;2022-11-20T05:02:56;102062.44;;;-1.44;100.00
48077;BME280;33854;57.708;12.008;2022-11-20T05:05:22;102016.56;;;-1.69;100.00
48077;BME280;33854;57.708;12.008;2022-11-20T05:07:47;102039.31;;;-1.47;100.00
48077;BME280;33854;57.708;12.008;2022-11-20T05:10:12;102049.75;;;-1.38;100.00
48077;BME280;33854;57.708;12.008;2022-11-20T05:12:38;102004.84;;;-1.61;100.00
48077;BME280;33854;57.708;12.008;2022-11-20T05:15:03;102046.44;;;-1.34;100.00
48077;BME280;33854;57.708;12.008;2022-11-20T05:17:29;101995.50;;;-1.59;100.00
48077;BME280;33854;57.708;12.008;2022-11-20T05:19:54;102040.50;;;-1.33;100.00
48077;BME280;33854;57.708;12.008;2022-11-20T05:22:20;102045.50;;;-1.37;100.00
48077;BME280;33854;57.708;12.008;2022-11-20T05:24:45;102002.31;;;-1.59;100.00
48077;BME280;33854;57.708;12.008;2022-11-20T05:27:11;102046.44;;;-1.34;100.00
48077;BME280;33854;57.708;12.008;2022-11-20T05:29:36;101982.63;;;-1.62;100.00
48077;BME280;33854;57.708;12.008;2022-11-20T05:32:01;102030.25;;;-1.33;100.00
48077;BME280;33854;57.708;12.008;2022-11-20T05:34:27;102036.34;;;-1.26;100.00
48077;BME280;33854;57.708;12.008;2022-11-20T05:36:52;102027.75;;;-1.30;100.00
48077;BME280;33854;57.708;12.008;2022-11-20T05:39:17;102026.16;;;-1.25;100.00
48077;BME280;33854;57.708;12.008;2022-11-20T05:41:43;101984.63;;;-1.49;100.00
48077;BME280;33854;57.708;12.008;2022-11-20T05:44:13;101983.00;;;-1.47;100.00
48077;BME280;33854;57.708;12.008;2022-11-20T05:46:38;101986.44;;;-1.45;100.00
48077;BME280;33854;57.708;12.008;2022-11-20T05:49:03;102030.63;;;-1.16;100.00
48077;BME280;33854;57.708;12.008;2022-11-20T05:51:29;102026.38;;;-1.16;100.00
48077;BME280;33854;57.708;12.008;2022-11-20T05:53:57;102002.97;;;-1.31;100.00
48077;BME280;33854;57.708;12.008;2022-11-20T05:56:23;101990.03;;;-1.37;100.00
48077;BME280;33854;57.708;12.008;2022-11-20T05:58:49;102033.34;;;-1.08;100.00
48077;BME280;33854;57.708;12.008;2022-11-20T06:01:23;102053.09;;;-1.03;100.00
48077;BME280;33854;57.708;12.008;2022-11-20T06:03:49;102036.03;;;-1.02;100.00
48077;BME280;33854;57.708;12.008;2022-11-20T06:06:16;102049.72;;;-1.02;100.00
48077;BME280;33854;57.708;12.008;2022-11-20T06:08:42;102049.72;;;-1.02;100.00
48077;BME280;33854;57.708;12.008;2022-11-20T06:11:10;102055.00;;;-0.96;100.00
48077;BME280;33854;57.708;12.008;2022-11-20T06:13:35;102052.44;;;-0.94;100.00
48077;BME280;33854;57.708;12.008;2022-11-20T06:16:01;102052.44;;;-0.94;100.00
48077;BME280;33854;57.708;12.008;2022-11-20T06:18:28;102050.00;;;-0.90;100.00
48077;BME280;33854;57.708;12.008;2022-11-20T06:21:02;102043.94;;;-0.93;100.00
48077;BME280;33854;57.708;12.008;2022-11-20T06:23:30;102042.31;;;-0.88;100.00
48077;BME280;33854;57.708;12.008;2022-11-20T06:25:55;102046.50;;;-0.92;100.00
48077;BME280;33854;57.708;12.008;2022-11-20T06:28:21;102043.94;;;-0.92;100.00
48077;BME280;33854;57.708;12.008;2022-11-20T06:30:47;102043.13;;;-0.91;100.00
48077;BME280;33854;57.708;12.008;2022-11-20T06:33:12;102045.75;;;-0.88;100.00
48077;BME280;33854;57.708;12.008;2022-11-20T06:35:37;102021.53;;;-1.02;100.00
48077;BME280;33854;57.708;12.008;2022-11-20T06:38:03;102009.63;;;-1.00;100.00
48077;BME280;33854;57.708;12.008;2022-11-20T06:40:28;102040.00;;;-0.78;100.00
48077;BME280;33854;57.708;12.008;2022-11-20T06:42:54;102038.28;;;-0.79;100.00
48077;BME280;33854;57.708;12.008;2022-11-20T06:45:20;102037.41;;;-0.79;100.00
48077;BME280;33854;57.708;12.008;2022-11-20T06:47:45;102033.88;;;-0.84;100.00
48077;BME280;33854;57.708;12.008;2022-11-20T06:50:11;102031.38;;;-0.81;100.00
48077;BME280;33854;57.708;12.008;2022-11-20T06:52:36;101971.00;;;-1.09;100.00
48077;BME280;33854;57.708;12.008;2022-11-20T06:55:02;102034.00;;;-0.78;100.00
48077;BME280;33854;57.708;12.008;2022-11-20T06:57:27;102025.47;;;-0.77;100.00
48077;BME280;33854;57.708;12.008;2022-11-20T06:59:52;102032.34;;;-0.76;100.00
48077;BME280;33854;57.708;12.008;2022-11-20T07:02:18;102021.13;;;-0.81;100.00
48077;BME280;33854;57.708;12.008;2022-11-20T07:04:43;101986.53;;;-1.01;100.00
48077;BME280;33854;57.708;12.008;2022-11-20T07:07:08;102031.59;;;-0.72;100.00
48077;BME280;33854;57.708;12.008;2022-11-20T07:09:34;102022.16;;;-0.72;100.00
48077;BME280;33854;57.708;12.008;2022-11-20T07:11:59;102021.34;;;-0.71;100.00
48077;BME280;33854;57.708;12.008;2022-11-20T07:14:25;102017.97;;;-0.68;100.00
48077;BME280;33854;57.708;12.008;2022-11-20T07:16:51;102005.97;;;-0.71;100.00
48077;BME280;33854;57.708;12.008;2022-11-20T07:19:16;102011.22;;;-0.65;100.00
48077;BME280;33854;57.708;12.008;2022-11-20T07:21:41;101980.31;;;-0.72;100.00
48077;BME280;33854;57.708;12.008;2022-11-20T07:24:07;102002.75;;;-0.61;100.00
48077;BME280;33854;57.708;12.008;2022-11-20T07:26:32;102000.28;;;-0.56;100.00
48077;BME280;33854;57.708;12.008;2022-11-20T07:28:58;101992.59;;;-0.54;100.00
48077;BME280;33854;57.708;12.008;2022-11-20T07:31:23;101993.53;;;-0.51;100.00
48077;BME280;33854;57.708;12.008;2022-11-20T07:33:48;101997.84;;;-0.50;100.00
48077;BME280;33854;57.708;12.008;2022-11-20T07:36:14;101994.47;;;-0.46;100.00
48077;BME280;33854;57.708;12.008;2022-11-20T07:38:39;101942.66;;;-0.75;100.00
48077;BME280;33854;57.708;12.008;2022-11-20T07:41:04;101970.56;;;-0.46;100.00
48077;BME280;33854;57.708;12.008;2022-11-20T07:43:30;101972.31;;;-0.42;100.00
48077;BME280;33854;57.708;12.008;2022-11-20T07:45:56;101925.84;;;-0.61;100.00
48077;BME280;33854;57.708;12.008;2022-11-20T07:48:23;101907.97;;;-0.57;100.00
48077;BME280;33854;57.708;12.008;2022-11-20T07:50:48;101887.28;;;-0.65;100.00
48077;BME280;33854;57.708;12.008;2022-11-20T07:53:13;101917.78;;;-0.32;100.00
48077;BME280;33854;57.708;12.008;2022-11-20T07:55:39;101848.06;;;-0.61;100.00
48077;BME280;33854;57.708;12.008;2022-11-20T07:58:04;101869.00;;;-0.35;100.00
48077;BME280;33854;57.708;12.008;2022-11-20T08:00:30;101877.69;;;-0.26;100.00
48077;BME280;33854;57.708;12.008;2022-11-20T08:02:55;101818.44;;;-0.44;100.00
48077;BME280;33854;57.708;12.008;2022-11-20T08:05:21;101849.56;;;-0.21;100.00
48077;BME280;33854;57.708;12.008;2022-11-20T08:07:47;101791.00;;;-0.49;100.00
48077;BME280;33854;57.708;12.008;2022-11-20T08:10:14;101835.09;;;-0.16;100.00
48077;BME280;33854;57.708;12.008;2022-11-20T08:12:48;101817.16;;;-0.16;100.00
48077;BME280;33854;57.708;12.008;2022-11-20T08:15:33;101772.47;;;-0.30;100.00
48077;BME280;33854;57.708;12.008;2022-11-20T08:18:00;101798.44;;;-0.09;100.00
48077;BME280;33854;57.708;12.008;2022-11-20T08:20:26;101749.34;;;-0.35;100.00
48077;BME280;33854;57.708;12.008;2022-11-20T08:22:51;101780.50;;;-0.08;100.00
48077;BME280;33854;57.708;12.008;2022-11-20T08:25:17;101764.28;;;-0.05;100.00
48077;BME280;33854;57.708;12.008;2022-11-20T08:27:42;101724.66;;;-0.27;100.00
48077;BME280;33854;57.708;12.008;2022-11-20T08:30:08;101752.31;;;-0.06;100.00
48077;BME280;33854;57.708;12.008;2022-11-20T08:32:33;101756.66;;;0.01;100.00
48077;BME280;33854;57.708;12.008;2022-11-20T08:35:01;101731.88;;;0.02;100.00
48077;BME280;33854;57.708;12.008;2022-11-20T08:37:26;101659.56;;;-0.35;100.00
48077;BME280;33854;57.708;12.008;2022-11-20T08:39:51;101678.53;;;-0.22;100.00
48077;BME280;33854;57.708;12.008;2022-11-20T08:42:18;101706.28;;;0.08;100.00
48077;BME280;33854;57.708;12.008;2022-11-20T08:44:43;101699.44;;;0.10;100.00
48077;BME280;33854;57.708;12.008;2022-11-20T08:47:09;101691.81;;;0.16;100.00
48077;BME280;33854;57.708;12.008;2022-11-20T08:49:34;101621.28;;;-0.17;100.00
48077;BME280;33854;57.708;12.008;2022-11-20T08:51:59;101613.66;;;-0.11;100.00
48077;BME280;33854;57.708;12.008;2022-11-20T08:54:25;101639.69;;;0.21;100.00
48077;BME280;33854;57.708;12.008;2022-11-20T08:56:50;101617.41;;;0.19;100.00
48077;BME280;33854;57.708;12.008;2022-11-20T08:59:16;101597.78;;;0.22;100.00
48077;BME280;33854;57.708;12.008;2022-11-20T09:01:41;101592.72;;;0.30;100.00
48077;BME280;33854;57.708;12.008;2022-11-20T09:04:06;101573.91;;;0.32;100.00
48077;BME280;33854;57.708;12.008;2022-11-20T09:06:32;101552.56;;;0.36;100.00
48077;BME280;33854;57.708;12.008;2022-11-20T09:08:57;101524.31;;;0.38;100.00
48077;BME280;33854;57.708;12.008;2022-11-20T09:11:23;101504.69;;;0.43;100.00
48077;BME280;33854;57.708;12.008;2022-11-20T09:13:48;101473.88;;;0.49;100.00
48077;BME280;33854;57.708;12.008;2022-11-20T09:16:14;101442.25;;;0.51;100.00
48077;BME280;33854;57.708;12.008;2022-11-20T09:18:39;101411.44;;;0.56;100.00
48077;BME280;33854;57.708;12.008;2022-11-20T09:21:07;101380.66;;;0.59;100.00
48077;BME280;33854;57.708;12.008;2022-11-20T09:23:36;101354.97;;;0.62;100.00
48077;BME280;33854;57.708;12.008;2022-11-20T09:26:13;101282.94;;;0.38;100.00
48077;BME280;33854;57.708;12.008;2022-11-20T09:28:39;101296.78;;;0.69;100.00
48077;BME280;33854;57.708;12.008;2022-11-20T09:31:17;101236.78;;;0.53;100.00
48077;BME280;33854;57.708;12.008;2022-11-20T09:33:44;101239.44;;;0.82;100.00
48077;BME280;33854;57.708;12.008;2022-11-20T09:36:10;101222.31;;;0.88;100.00
48077;BME280;33854;57.708;12.008;2022-11-20T09:38:35;101137.50;;;0.56;100.00
48077;BME280;33854;57.708;12.008;2022-11-20T09:41:05;101132.38;;;0.73;100.00
48077;BME280;33854;57.708;12.008;2022-11-20T09:46:45;101108.41;;;0.94;100.00
48077;BME280;33854;57.708;12.008;2022-11-20T09:49:36;101095.53;;;0.97;100.00
48077;BME280;33854;57.708;12.008;2022-11-20T09:55:01;101059.56;;;0.95;100.00
48077;BME280;33854;57.708;12.008;2022-11-20T09:57:37;101056.13;;;1.02;100.00
48077;BME280;33854;57.708;12.008;2022-11-20T10:00:06;101021.03;;;0.85;100.00
48077;BME280;33854;57.708;12.008;2022-11-20T10:03:03;101046.69;;;1.04;100.00
48077;BME280;33854;57.708;12.008;2022-11-20T10:05:52;101037.25;;;1.09;100.00
48077;BME280;33854;57.708;12.008;2022-11-20T10:13:39;101014.09;;;1.12;100.00
48077;BME280;33854;57.708;12.008;2022-11-20T10:24:56;100941.31;;;1.06;100.00
48077;BME280;33854;57.708;12.008;2022-11-20T10:30:24;100931.00;;;1.17;100.00
48077;BME280;33854;57.708;12.008;2022-11-20T10:32:58;100915.53;;;1.21;100.00
48077;BME280;33854;57.708;12.008;2022-11-20T10:35:39;100905.22;;;1.24;100.00
48077;BME280;33854;57.708;12.008;2022-11-20T10:38:20;100897.53;;;1.23;100.00
48077;BME280;33854;57.708;12.008;2022-11-20T10:40:57;100884.72;;;1.12;100.00
48077;BME280;33854;57.708;12.008;2022-11-20T10:43:44;100830.97;;;0.77;100.00
48077;BME280;33854;57.708;12.008;2022-11-20T10:46:21;100874.50;;;1.06;100.00
48077;BME280;33854;57.708;12.008;2022-11-20T10:48:48;100882.13;;;1.15;100.00
48077;BME280;33854;57.708;12.008;2022-11-20T10:56:40;100855.41;;;1.43;100.00
48077;BME280;33854;57.708;12.008;2022-11-20T11:02:23;100778.31;;;1.37;100.00
48077;BME280;33854;57.708;12.008;2022-11-20T11:04:51;100761.94;;;1.49;100.00
48077;BME280;33854;57.708;12.008;2022-11-20T11:07:30;100776.16;;;1.86;100.00
48077;BME280;33854;57.708;12.008;2022-11-20T11:09:58;100748.72;;;1.85;100.00
48077;BME280;33854;57.708;12.008;2022-11-20T11:12:25;100724.69;;;1.86;100.00
48077;BME280;33854;57.708;12.008;2022-11-20T11:14:54;100704.81;;;2.00;100.00
48077;BME280;33854;57.708;12.008;2022-11-20T11:17:46;100669.00;;;1.81;100.00
48077;BME280;33854;57.708;12.008;2022-11-20T11:20:21;100787.41;;;1.76;100.00
48077;BME280;33854;57.708;12.008;2022-11-20T11:27:49;100766.94;;;1.62;100.00
48077;BME280;33854;57.708;12.008;2022-11-20T11:30:16;100773.81;;;1.63;100.00
48077;BME280;33854;57.708;12.008;2022-11-20T11:32:42;100769.47;;;1.68;100.00
48077;BME280;33854;57.708;12.008;2022-11-20T11:35:28;100758.34;;;1.65;100.00
48077;BME280;33854;57.708;12.008;2022-11-20T11:38:30;100744.66;;;1.61;100.00
48077;BME280;33854;57.708;12.008;2022-11-20T11:40:57;100740.38;;;1.62;100.00
48077;BME280;33854;57.708;12.008;2022-11-20T11:43:25;100737.00;;;1.57;100.00
48077;BME280;33854;57.708;12.008;2022-11-20T11:46:32;100726.75;;;1.51;100.00
48077;BME280;33854;57.708;12.008;2022-11-20T11:51:55;100721.66;;;1.45;100.00
48077;BME280;33854;57.708;12.008;2022-11-20T11:54:35;100720.03;;;1.36;100.00
48077;BME280;33854;57.708;12.008;2022-11-20T11:57:09;100726.88;;;1.40;100.00
48077;BME280;33854;57.708;12.008;2022-11-20T11:59:47;100721.72;;;1.40;100.00
48077;BME280;33854;57.708;12.008;2022-11-20T12:07:57;100733.84;;;1.26;100.00
48077;BME280;33854;57.708;12.008;2022-11-20T12:13:15;100689.53;;;0.95;100.00
48077;BME280;33854;57.708;12.008;2022-11-20T12:15:46;100737.31;;;1.19;100.00
48077;BME280;33854;57.708;12.008;2022-11-20T12:18:18;100752.78;;;1.14;100.00
48077;BME280;33854;57.708;12.008;2022-11-20T12:20:54;100721.25;;;0.90;100.00
48077;BME280;33854;57.708;12.008;2022-11-20T12:26:10;100782.75;;;1.15;100.00
48077;BME280;33854;57.708;12.008;2022-11-20T12:29:08;100787.91;;;1.14;100.00
48077;BME280;33854;57.708;12.008;2022-11-20T12:31:43;100797.31;;;1.17;100.00
48077;BME280;33854;57.708;12.008;2022-11-20T12:34:32;100799.06;;;1.14;100.00
48077;BME280;33854;57.708;12.008;2022-11-20T12:37:35;100813.63;;;1.12;100.00
48077;BME280;33854;57.708;12.008;2022-11-20T12:43:19;100838.47;;;1.10;100.00
48077;BME280;33854;57.708;12.008;2022-11-20T12:49:16;100849.63;;;1.09;100.00
48077;BME280;33854;57.708;12.008;2022-11-20T12:54:41;100863.28;;;1.16;100.00
48077;BME280;33854;57.708;12.008;2022-11-20T12:57:20;100841.03;;;1.17;100.00
48077;BME280;33854;57.708;12.008;2022-11-20T13:02:33;100830.72;;;1.20;100.00
48077;BME280;33854;57.708;12.008;2022-11-20T13:05:24;100831.63;;;1.14;100.00
48077;BME280;33854;57.708;12.008;2022-11-20T13:07:53;100821.34;;;1.11;100.00
48077;BME280;33854;57.708;12.008;2022-11-20T13:12:55;100815.34;;;1.10;100.00
48077;BME280;33854;57.708;12.008;2022-11-20T13:18:09;100790.56;;;1.02;100.00
48077;BME280;33854;57.708;12.008;2022-11-20T13:20:36;100783.75;;;0.95;100.00
48077;BME280;33854;57.708;12.008;2022-11-20T13:23:01;100779.47;;;0.94;100.00
48077;BME280;33854;57.708;12.008;2022-11-20T13:25:34;100793.97;;;1.01;100.00
48077;BME280;33854;57.708;12.008;2022-11-20T13:30:50;100755.59;;;0.77;100.00
48077;BME280;33854;57.708;12.008;2022-11-20T13:36:06;100798.31;;;0.94;100.00
48077;BME280;33854;57.708;12.008;2022-11-20T13:38:47;100802.56;;;0.98;100.00
48077;BME280;33854;57.708;12.008;2022-11-20T13:41:33;100801.72;;;0.96;100.00
48077;BME280;33854;57.708;12.008;2022-11-20T13:46:42;100812.88;;;0.92;100.00
48077;BME280;33854;57.708;12.008;2022-11-20T13:49:16;100777.06;;;0.67;100.00
48077;BME280;33854;57.708;12.008;2022-11-20T13:51:48;100817.16;;;0.93;100.00
48077;BME280;33854;57.708;12.008;2022-11-20T13:57:37;100817.19;;;0.87;100.00
48077;BME280;33854;57.708;12.008;2022-11-20T14:02:37;100829.19;;;0.91;100.00
48077;BME280;33854;57.708;12.008;2022-11-20T14:05:04;100839.44;;;0.94;100.00
48077;BME280;33854;57.708;12.008;2022-11-20T14:07:37;100841.16;;;0.94;100.00
48077;BME280;33854;57.708;12.008;2022-11-20T14:10:05;100853.13;;;0.95;100.00